sensor_id;sensor_type;location;lat;lon;timestamp;P1;durP1;ratioP1;P2;durP2;ratioP2
52031;SDS011;38044;45.148;39.604;2023-07-31T00:00:17;15.55;;;9.38;;
52031;SDS011;38044;45.148;39.604;2023-07-31T00:02:43;13.67;;;9.10;;
52031;SDS011;38044;45.148;39.604;2023-07-31T00:05:09;15.32;;;8.82;;
52031;SDS011;38044;45.148;39.604;2023-07-31T00:07:35;13.60;;;9.68;;
52031;SDS011;38044;45.148;39.604;2023-07-31T00:10:01;19.38;;;9.80;;
52031;SDS011;38044;45.148;39.604;2023-07-31T00:12:27;16.58;;;10.05;;
52031;SDS011;38044;45.148;39.604;2023-07-31T00:14:53;19.23;;;10.98;;
52031;SDS011;38044;45.148;39.604;2023-07-31T00:17:19;22.60;;;12.47;;
52031;SDS011;38044;45.148;39.604;2023-07-31T00:19:45;20.30;;;12.73;;
52031;SDS011;38044;45.148;39.604;2023-07-31T00:22:15;19.27;;;12.90;;
52031;SDS011;38044;45.148;39.604;2023-07-31T00:24:41;19.17;;;11.93;;
52031;SDS011;38044;45.148;39.604;2023-07-31T00:27:07;19.73;;;12.25;;
52031;SDS011;38044;45.148;39.604;2023-07-31T00:29:33;21.52;;;12.80;;
52031;SDS011;38044;45.148;39.604;2023-07-31T00:31:59;19.83;;;12.03;;
52031;SDS011;38044;45.148;39.604;2023-07-31T00:34:26;21.48;;;12.45;;
52031;SDS011;38044;45.148;39.604;2023-07-31T00:36:51;20.15;;;12.07;;
52031;SDS011;38044;45.148;39.604;2023-07-31T00:39:17;21.47;;;12.90;;
52031;SDS011;38044;45.148;39.604;2023-07-31T00:41:43;18.67;;;11.50;;
52031;SDS011;38044;45.148;39.604;2023-07-31T00:44:09;22.08;;;12.93;;
52031;SDS011;38044;45.148;39.604;2023-07-31T00:46:36;18.80;;;11.85;;
52031;SDS011;38044;45.148;39.604;2023-07-31T00:49:02;18.15;;;11.93;;
52031;SDS011;38044;45.148;39.604;2023-07-31T00:51:29;19.63;;;11.98;;
52031;SDS011;38044;45.148;39.604;2023-07-31T00:53:55;20.55;;;12.23;;
52031;SDS011;38044;45.148;39.604;2023-07-31T00:56:21;22.30;;;12.02;;
52031;SDS011;38044;45.148;39.604;2023-07-31T00:58:49;19.75;;;12.40;;
52031;SDS011;38044;45.148;39.604;2023-07-31T01:01:15;21.43;;;12.70;;
52031;SDS011;38044;45.148;39.604;2023-07-31T01:03:41;20.60;;;12.48;;
52031;SDS011;38044;45.148;39.604;2023-07-31T01:11:28;21.23;;;12.80;;
52031;SDS011;38044;45.148;39.604;2023-07-31T01:13:56;21.95;;;14.75;;
52031;SDS011;38044;45.148;39.604;2023-07-31T01:16:23;22.23;;;14.70;;
52031;SDS011;38044;45.148;39.604;2023-07-31T01:18:50;22.38;;;15.02;;
52031;SDS011;38044;45.148;39.604;2023-07-31T01:21:21;23.83;;;14.32;;
52031;SDS011;38044;45.148;39.604;2023-07-31T01:24:20;19.73;;;15.18;;
52031;SDS011;38044;45.148;39.604;2023-07-31T01:27:10;150.10;;;23.27;;
52031;SDS011;38044;45.148;39.604;2023-07-31T01:32:08;42.15;;;16.98;;
52031;SDS011;38044;45.148;39.604;2023-07-31T01:34:36;25.17;;;17.30;;
52031;SDS011;38044;45.148;39.604;2023-07-31T01:37:02;31.85;;;20.75;;
52031;SDS011;38044;45.148;39.604;2023-07-31T01:39:28;26.80;;;17.50;;
52031;SDS011;38044;45.148;39.604;2023-07-31T01:41:54;27.08;;;18.15;;
52031;SDS011;38044;45.148;39.604;2023-07-31T01:44:20;27.77;;;18.92;;
52031;SDS011;38044;45.148;39.604;2023-07-31T01:46:46;31.33;;;20.10;;
52031;SDS011;38044;45.148;39.604;2023-07-31T01:49:12;21.17;;;14.63;;
52031;SDS011;38044;45.148;39.604;2023-07-31T01:51:38;23.92;;;14.73;;
52031;SDS011;38044;45.148;39.604;2023-07-31T01:54:04;23.83;;;16.98;;
52031;SDS011;38044;45.148;39.604;2023-07-31T01:56:30;23.63;;;17.10;;
52031;SDS011;38044;45.148;39.604;2023-07-31T01:58:56;23.10;;;16.87;;
52031;SDS011;38044;45.148;39.604;2023-07-31T02:01:22;20.33;;;13.75;;
52031;SDS011;38044;45.148;39.604;2023-07-31T02:03:48;21.50;;;13.07;;
52031;SDS011;38044;45.148;39.604;2023-07-31T02:06:14;21.48;;;13.73;;
52031;SDS011;38044;45.148;39.604;2023-07-31T02:08:40;21.70;;;13.85;;
52031;SDS011;38044;45.148;39.604;2023-07-31T02:11:06;19.15;;;12.85;;
52031;SDS011;38044;45.148;39.604;2023-07-31T02:13:32;19.37;;;12.63;;
52031;SDS011;38044;45.148;39.604;2023-07-31T02:15:57;18.85;;;13.10;;
52031;SDS011;38044;45.148;39.604;2023-07-31T02:18:23;22.15;;;13.43;;
52031;SDS011;38044;45.148;39.604;2023-07-31T02:20:50;22.27;;;13.73;;
52031;SDS011;38044;45.148;39.604;2023-07-31T02:23:16;21.27;;;14.18;;
52031;SDS011;38044;45.148;39.604;2023-07-31T02:25:43;21.20;;;14.23;;
52031;SDS011;38044;45.148;39.604;2023-07-31T02:28:10;19.15;;;13.45;;
52031;SDS011;38044;45.148;39.604;2023-07-31T02:30:36;20.52;;;13.32;;
52031;SDS011;38044;45.148;39.604;2023-07-31T02:33:03;21.98;;;14.38;;
52031;SDS011;38044;45.148;39.604;2023-07-31T02:35:30;22.83;;;15.60;;
52031;SDS011;38044;45.148;39.604;2023-07-31T02:37:56;23.67;;;16.10;;
52031;SDS011;38044;45.148;39.604;2023-07-31T02:40:22;24.88;;;16.02;;
52031;SDS011;38044;45.148;39.604;2023-07-31T02:42:48;25.00;;;17.33;;
52031;SDS011;38044;45.148;39.604;2023-07-31T02:45:14;24.30;;;13.88;;
52031;SDS011;38044;45.148;39.604;2023-07-31T02:47:40;21.17;;;12.38;;
52031;SDS011;38044;45.148;39.604;2023-07-31T02:50:06;23.52;;;13.32;;
52031;SDS011;38044;45.148;39.604;2023-07-31T02:52:32;21.73;;;12.90;;
52031;SDS011;38044;45.148;39.604;2023-07-31T02:54:58;19.07;;;12.70;;
52031;SDS011;38044;45.148;39.604;2023-07-31T02:57:31;24.88;;;13.10;;
52031;SDS011;38044;45.148;39.604;2023-07-31T02:59:58;27.35;;;12.48;;
52031;SDS011;38044;45.148;39.604;2023-07-31T03:02:26;19.63;;;14.82;;
52031;SDS011;38044;45.148;39.604;2023-07-31T03:04:53;18.67;;;13.23;;
52031;SDS011;38044;45.148;39.604;2023-07-31T03:07:19;17.27;;;11.80;;
52031;SDS011;38044;45.148;39.604;2023-07-31T03:09:44;16.73;;;11.15;;
52031;SDS011;38044;45.148;39.604;2023-07-31T03:12:10;17.95;;;10.68;;
52031;SDS011;38044;45.148;39.604;2023-07-31T03:14:36;16.70;;;11.20;;
52031;SDS011;38044;45.148;39.604;2023-07-31T03:17:02;15.82;;;10.30;;
52031;SDS011;38044;45.148;39.604;2023-07-31T03:19:30;14.10;;;9.80;;
52031;SDS011;38044;45.148;39.604;2023-07-31T03:21:57;15.65;;;9.32;;
52031;SDS011;38044;45.148;39.604;2023-07-31T03:24:23;12.88;;;9.85;;
52031;SDS011;38044;45.148;39.604;2023-07-31T03:26:48;12.18;;;8.60;;
52031;SDS011;38044;45.148;39.604;2023-07-31T03:29:15;14.80;;;9.40;;
52031;SDS011;38044;45.148;39.604;2023-07-31T03:31:41;29.67;;;10.45;;
52031;SDS011;38044;45.148;39.604;2023-07-31T03:34:06;13.90;;;8.67;;
52031;SDS011;38044;45.148;39.604;2023-07-31T03:36:32;15.75;;;8.50;;
52031;SDS011;38044;45.148;39.604;2023-07-31T03:38:58;11.35;;;8.30;;
52031;SDS011;38044;45.148;39.604;2023-07-31T03:41:24;12.40;;;8.20;;
52031;SDS011;38044;45.148;39.604;2023-07-31T03:43:52;16.85;;;7.93;;
52031;SDS011;38044;45.148;39.604;2023-07-31T03:46:28;12.35;;;7.65;;
52031;SDS011;38044;45.148;39.604;2023-07-31T03:48:54;11.65;;;7.78;;
52031;SDS011;38044;45.148;39.604;2023-07-31T03:51:23;12.57;;;7.53;;
52031;SDS011;38044;45.148;39.604;2023-07-31T03:53:49;10.20;;;6.95;;
52031;SDS011;38044;45.148;39.604;2023-07-31T03:56:14;11.33;;;6.97;;
52031;SDS011;38044;45.148;39.604;2023-07-31T03:58:40;12.00;;;7.18;;
52031;SDS011;38044;45.148;39.604;2023-07-31T04:01:06;12.57;;;7.07;;
52031;SDS011;38044;45.148;39.604;2023-07-31T04:03:32;11.05;;;7.53;;
52031;SDS011;38044;45.148;39.604;2023-07-31T04:05:58;9.13;;;6.82;;
52031;SDS011;38044;45.148;39.604;2023-07-31T04:08:24;10.13;;;6.78;;
52031;SDS011;38044;45.148;39.604;2023-07-31T04:10:50;11.70;;;7.10;;
52031;SDS011;38044;45.148;39.604;2023-07-31T04:13:15;12.02;;;6.90;;
52031;SDS011;38044;45.148;39.604;2023-07-31T04:15:41;11.60;;;7.50;;
52031;SDS011;38044;45.148;39.604;2023-07-31T04:18:09;10.57;;;7.43;;
52031;SDS011;38044;45.148;39.604;2023-07-31T04:20:34;31.20;;;9.30;;
52031;SDS011;38044;45.148;39.604;2023-07-31T04:23:00;11.17;;;7.80;;
52031;SDS011;38044;45.148;39.604;2023-07-31T04:25:26;11.20;;;7.00;;
52031;SDS011;38044;45.148;39.604;2023-07-31T04:27:52;10.43;;;6.87;;
52031;SDS011;38044;45.148;39.604;2023-07-31T04:30:18;10.80;;;6.93;;
52031;SDS011;38044;45.148;39.604;2023-07-31T04:32:44;10.00;;;6.73;;
52031;SDS011;38044;45.148;39.604;2023-07-31T04:35:10;13.32;;;6.82;;
52031;SDS011;38044;45.148;39.604;2023-07-31T04:37:36;11.93;;;5.77;;
52031;SDS011;38044;45.148;39.604;2023-07-31T04:40:01;10.18;;;6.00;;
52031;SDS011;38044;45.148;39.604;2023-07-31T04:42:27;10.20;;;6.10;;
52031;SDS011;38044;45.148;39.604;2023-07-31T04:49:45;12.95;;;6.80;;
52031;SDS011;38044;45.148;39.604;2023-07-31T10:08:38;6.13;;;2.42;;
52031;SDS011;38044;45.148;39.604;2023-07-31T10:11:20;3.13;;;2.20;;
52031;SDS011;38044;45.148;39.604;2023-07-31T10:13:48;4.70;;;2.13;;
52031;SDS011;38044;45.148;39.604;2023-07-31T10:16:16;6.70;;;2.42;;
52031;SDS011;38044;45.148;39.604;2023-07-31T10:21:44;5.75;;;2.13;;
52031;SDS011;38044;45.148;39.604;2023-07-31T10:24:11;3.03;;;1.95;;
52031;SDS011;38044;45.148;39.604;2023-07-31T10:26:38;5.15;;;2.30;;
52031;SDS011;38044;45.148;39.604;2023-07-31T10:29:05;4.77;;;2.20;;
52031;SDS011;38044;45.148;39.604;2023-07-31T10:31:36;7.78;;;2.20;;
52031;SDS011;38044;45.148;39.604;2023-07-31T10:34:06;3.65;;;2.00;;
52031;SDS011;38044;45.148;39.604;2023-07-31T10:36:35;5.45;;;2.20;;
52031;SDS011;38044;45.148;39.604;2023-07-31T10:39:03;5.60;;;2.00;;
52031;SDS011;38044;45.148;39.604;2023-07-31T10:41:30;3.90;;;2.30;;
52031;SDS011;38044;45.148;39.604;2023-07-31T10:43:58;4.95;;;2.17;;
52031;SDS011;38044;45.148;39.604;2023-07-31T10:46:25;3.97;;;2.40;;
52031;SDS011;38044;45.148;39.604;2023-07-31T10:49:00;3.97;;;2.40;;
52031;SDS011;38044;45.148;39.604;2023-07-31T10:51:33;4.55;;;2.17;;
52031;SDS011;38044;45.148;39.604;2023-07-31T10:54:13;4.57;;;2.20;;
52031;SDS011;38044;45.148;39.604;2023-07-31T10:56:44;4.80;;;2.40;;
52031;SDS011;38044;45.148;39.604;2023-07-31T10:59:11;5.90;;;2.13;;
52031;SDS011;38044;45.148;39.604;2023-07-31T11:01:53;5.17;;;2.50;;
52031;SDS011;38044;45.148;39.604;2023-07-31T11:04:23;3.93;;;1.90;;
52031;SDS011;38044;45.148;39.604;2023-07-31T11:06:58;4.55;;;2.00;;
52031;SDS011;38044;45.148;39.604;2023-07-31T11:09:29;4.63;;;2.10;;
52031;SDS011;38044;45.148;39.604;2023-07-31T11:11:58;7.18;;;2.45;;
52031;SDS011;38044;45.148;39.604;2023-07-31T11:14:40;5.60;;;2.50;;
52031;SDS011;38044;45.148;39.604;2023-07-31T11:17:09;6.63;;;2.67;;
52031;SDS011;38044;45.148;39.604;2023-07-31T11:19:35;11.02;;;5.00;;
52031;SDS011;38044;45.148;39.604;2023-07-31T11:22:03;4.68;;;2.10;;
52031;SDS011;38044;45.148;39.604;2023-07-31T11:24:30;11.80;;;6.30;;
52031;SDS011;38044;45.148;39.604;2023-07-31T11:26:56;3.35;;;2.00;;
52031;SDS011;38044;45.148;39.604;2023-07-31T11:29:22;4.40;;;2.00;;
52031;SDS011;38044;45.148;39.604;2023-07-31T11:31:52;5.75;;;3.03;;
52031;SDS011;38044;45.148;39.604;2023-07-31T11:34:18;4.20;;;2.40;;
52031;SDS011;38044;45.148;39.604;2023-07-31T11:36:54;20.42;;;3.15;;
52031;SDS011;38044;45.148;39.604;2023-07-31T11:39:21;9.18;;;2.30;;
52031;SDS011;38044;45.148;39.604;2023-07-31T11:41:47;6.05;;;2.35;;
52031;SDS011;38044;45.148;39.604;2023-07-31T11:44:13;5.83;;;2.17;;
52031;SDS011;38044;45.148;39.604;2023-07-31T11:46:38;18.30;;;3.42;;
52031;SDS011;38044;45.148;39.604;2023-07-31T11:49:04;7.25;;;2.20;;
52031;SDS011;38044;45.148;39.604;2023-07-31T11:51:31;5.53;;;2.00;;
52031;SDS011;38044;45.148;39.604;2023-07-31T11:53:57;4.63;;;2.25;;
52031;SDS011;38044;45.148;39.604;2023-07-31T11:56:26;5.83;;;2.20;;
52031;SDS011;38044;45.148;39.604;2023-07-31T11:58:53;5.82;;;2.33;;
52031;SDS011;38044;45.148;39.604;2023-07-31T12:01:22;3.60;;;2.17;;
52031;SDS011;38044;45.148;39.604;2023-07-31T12:03:49;5.40;;;2.10;;
52031;SDS011;38044;45.148;39.604;2023-07-31T12:06:16;5.27;;;2.20;;
52031;SDS011;38044;45.148;39.604;2023-07-31T12:08:42;4.55;;;2.08;;
52031;SDS011;38044;45.148;39.604;2023-07-31T12:11:08;8.90;;;2.47;;
52031;SDS011;38044;45.148;39.604;2023-07-31T12:13:35;3.70;;;2.15;;
52031;SDS011;38044;45.148;39.604;2023-07-31T12:16:02;11.73;;;2.58;;
52031;SDS011;38044;45.148;39.604;2023-07-31T12:18:30;5.72;;;2.25;;
52031;SDS011;38044;45.148;39.604;2023-07-31T12:21:01;10.65;;;2.80;;
52031;SDS011;38044;45.148;39.604;2023-07-31T12:23:30;5.67;;;2.10;;
52031;SDS011;38044;45.148;39.604;2023-07-31T12:28:29;32.78;;;3.67;;
52031;SDS011;38044;45.148;39.604;2023-07-31T12:30:59;3.20;;;2.00;;
52031;SDS011;38044;45.148;39.604;2023-07-31T12:33:32;4.35;;;2.17;;
52031;SDS011;38044;45.148;39.604;2023-07-31T12:36:03;6.50;;;2.35;;
52031;SDS011;38044;45.148;39.604;2023-07-31T12:38:30;4.57;;;2.30;;
52031;SDS011;38044;45.148;39.604;2023-07-31T12:40:56;6.75;;;2.40;;
52031;SDS011;38044;45.148;39.604;2023-07-31T12:43:22;3.45;;;2.00;;
52031;SDS011;38044;45.148;39.604;2023-07-31T12:45:47;6.03;;;2.30;;
52031;SDS011;38044;45.148;39.604;2023-07-31T12:48:14;5.40;;;2.47;;
52031;SDS011;38044;45.148;39.604;2023-07-31T12:50:40;20.17;;;3.13;;
52031;SDS011;38044;45.148;39.604;2023-07-31T12:53:06;34.85;;;21.02;;
52031;SDS011;38044;45.148;39.604;2023-07-31T12:55:32;67.80;;;42.15;;
52031;SDS011;38044;45.148;39.604;2023-07-31T12:58:02;14.50;;;9.48;;
52031;SDS011;38044;45.148;39.604;2023-07-31T13:00:28;7.43;;;2.55;;
52031;SDS011;38044;45.148;39.604;2023-07-31T13:02:54;74.13;;;7.83;;
52031;SDS011;38044;45.148;39.604;2023-07-31T13:05:20;4.53;;;2.22;;
52031;SDS011;38044;45.148;39.604;2023-07-31T13:07:47;5.13;;;2.50;;
52031;SDS011;38044;45.148;39.604;2023-07-31T13:10:13;12.10;;;4.47;;
52031;SDS011;38044;45.148;39.604;2023-07-31T13:12:39;10.27;;;4.47;;
52031;SDS011;38044;45.148;39.604;2023-07-31T13:15:05;7.85;;;3.22;;
52031;SDS011;38044;45.148;39.604;2023-07-31T13:17:32;4.47;;;2.40;;
52031;SDS011;38044;45.148;39.604;2023-07-31T13:19:58;4.82;;;2.63;;
52031;SDS011;38044;45.148;39.604;2023-07-31T13:22:24;8.80;;;4.93;;
52031;SDS011;38044;45.148;39.604;2023-07-31T13:24:50;7.70;;;3.45;;
52031;SDS011;38044;45.148;39.604;2023-07-31T13:27:16;6.57;;;2.28;;
52031;SDS011;38044;45.148;39.604;2023-07-31T13:29:44;11.02;;;4.43;;
52031;SDS011;38044;45.148;39.604;2023-07-31T13:32:12;6.57;;;2.97;;
52031;SDS011;38044;45.148;39.604;2023-07-31T13:34:38;11.38;;;2.65;;
52031;SDS011;38044;45.148;39.604;2023-07-31T13:37:04;27.38;;;3.67;;
52031;SDS011;38044;45.148;39.604;2023-07-31T13:39:31;4.85;;;2.10;;
52031;SDS011;38044;45.148;39.604;2023-07-31T13:41:58;4.13;;;2.30;;
52031;SDS011;38044;45.148;39.604;2023-07-31T13:44:24;7.28;;;2.38;;
52031;SDS011;38044;45.148;39.604;2023-07-31T13:46:50;6.30;;;2.20;;
52031;SDS011;38044;45.148;39.604;2023-07-31T13:49:16;6.65;;;2.47;;
52031;SDS011;38044;45.148;39.604;2023-07-31T13:51:42;4.72;;;2.15;;
52031;SDS011;38044;45.148;39.604;2023-07-31T13:54:08;5.03;;;2.33;;
52031;SDS011;38044;45.148;39.604;2023-07-31T13:56:36;5.60;;;2.00;;
52031;SDS011;38044;45.148;39.604;2023-07-31T13:59:02;5.30;;;2.40;;
52031;SDS011;38044;45.148;39.604;2023-07-31T14:01:28;44.17;;;5.18;;
52031;SDS011;38044;45.148;39.604;2023-07-31T14:03:54;4.55;;;2.22;;
52031;SDS011;38044;45.148;39.604;2023-07-31T14:06:20;6.95;;;4.07;;
52031;SDS011;38044;45.148;39.604;2023-07-31T14:08:46;6.55;;;3.10;;
52031;SDS011;38044;45.148;39.604;2023-07-31T14:11:12;14.93;;;2.97;;
52031;SDS011;38044;45.148;39.604;2023-07-31T14:13:38;5.57;;;2.10;;
52031;SDS011;38044;45.148;39.604;2023-07-31T14:16:04;3.97;;;2.10;;
52031;SDS011;38044;45.148;39.604;2023-07-31T14:18:29;5.50;;;1.80;;
52031;SDS011;38044;45.148;39.604;2023-07-31T14:20:55;4.43;;;2.05;;
52031;SDS011;38044;45.148;39.604;2023-07-31T14:23:21;6.05;;;2.28;;
52031;SDS011;38044;45.148;39.604;2023-07-31T14:25:47;7.13;;;2.53;;
52031;SDS011;38044;45.148;39.604;2023-07-31T14:28:13;15.60;;;3.15;;
52031;SDS011;38044;45.148;39.604;2023-07-31T14:30:39;7.50;;;2.58;;
52031;SDS011;38044;45.148;39.604;2023-07-31T14:33:05;6.50;;;2.50;;
52031;SDS011;38044;45.148;39.604;2023-07-31T14:35:31;7.75;;;2.08;;
52031;SDS011;38044;45.148;39.604;2023-07-31T14:37:57;12.30;;;2.60;;
52031;SDS011;38044;45.148;39.604;2023-07-31T14:40:23;8.15;;;2.47;;
52031;SDS011;38044;45.148;39.604;2023-07-31T14:42:49;15.87;;;3.10;;
52031;SDS011;38044;45.148;39.604;2023-07-31T14:45:15;5.57;;;2.30;;
52031;SDS011;38044;45.148;39.604;2023-07-31T14:47:40;5.13;;;2.13;;
52031;SDS011;38044;45.148;39.604;2023-07-31T14:50:06;4.43;;;2.10;;
52031;SDS011;38044;45.148;39.604;2023-07-31T14:52:32;11.02;;;2.45;;
52031;SDS011;38044;45.148;39.604;2023-07-31T14:54:58;8.15;;;2.20;;
52031;SDS011;38044;45.148;39.604;2023-07-31T14:57:24;6.37;;;2.37;;
52031;SDS011;38044;45.148;39.604;2023-07-31T14:59:50;5.82;;;2.22;;
52031;SDS011;38044;45.148;39.604;2023-07-31T15:02:16;8.70;;;2.40;;
52031;SDS011;38044;45.148;39.604;2023-07-31T15:04:42;9.05;;;2.30;;
52031;SDS011;38044;45.148;39.604;2023-07-31T15:07:08;8.45;;;2.70;;
52031;SDS011;38044;45.148;39.604;2023-07-31T15:09:33;13.90;;;2.83;;
52031;SDS011;38044;45.148;39.604;2023-07-31T15:11:59;9.63;;;2.75;;
52031;SDS011;38044;45.148;39.604;2023-07-31T15:14:25;3.90;;;2.03;;
52031;SDS011;38044;45.148;39.604;2023-07-31T15:16:53;5.43;;;2.40;;
52031;SDS011;38044;45.148;39.604;2023-07-31T15:19:18;19.67;;;3.20;;
52031;SDS011;38044;45.148;39.604;2023-07-31T15:21:44;4.13;;;1.70;;
52031;SDS011;38044;45.148;39.604;2023-07-31T15:24:10;7.25;;;2.10;;
52031;SDS011;38044;45.148;39.604;2023-07-31T15:26:39;5.00;;;2.00;;
52031;SDS011;38044;45.148;39.604;2023-07-31T15:29:07;5.32;;;2.22;;
52031;SDS011;38044;45.148;39.604;2023-07-31T15:31:44;6.30;;;2.20;;
52031;SDS011;38044;45.148;39.604;2023-07-31T15:34:12;5.13;;;2.55;;
52031;SDS011;38044;45.148;39.604;2023-07-31T15:36:38;9.18;;;2.53;;
52031;SDS011;38044;45.148;39.604;2023-07-31T15:39:04;7.97;;;2.60;;
52031;SDS011;38044;45.148;39.604;2023-07-31T15:41:30;7.55;;;2.78;;
52031;SDS011;38044;45.148;39.604;2023-07-31T15:43:56;6.50;;;2.50;;
52031;SDS011;38044;45.148;39.604;2023-07-31T15:46:22;6.85;;;2.75;;
52031;SDS011;38044;45.148;39.604;2023-07-31T15:48:48;11.43;;;2.50;;
52031;SDS011;38044;45.148;39.604;2023-07-31T15:51:14;7.47;;;2.70;;
52031;SDS011;38044;45.148;39.604;2023-07-31T15:53:40;12.43;;;2.80;;
52031;SDS011;38044;45.148;39.604;2023-07-31T15:56:06;10.63;;;3.00;;
52031;SDS011;38044;45.148;39.604;2023-07-31T15:58:32;7.85;;;2.53;;
52031;SDS011;38044;45.148;39.604;2023-07-31T16:00:58;8.07;;;3.10;;
52031;SDS011;38044;45.148;39.604;2023-07-31T16:03:24;10.82;;;3.20;;
52031;SDS011;38044;45.148;39.604;2023-07-31T16:05:50;6.63;;;2.50;;
52031;SDS011;38044;45.148;39.604;2023-07-31T16:08:15;6.13;;;2.67;;
52031;SDS011;38044;45.148;39.604;2023-07-31T16:10:41;8.55;;;2.85;;
52031;SDS011;38044;45.148;39.604;2023-07-31T16:13:07;8.85;;;2.75;;
52031;SDS011;38044;45.148;39.604;2023-07-31T16:15:33;10.18;;;2.90;;
52031;SDS011;38044;45.148;39.604;2023-07-31T16:17:59;8.60;;;2.78;;
52031;SDS011;38044;45.148;39.604;2023-07-31T16:20:25;16.05;;;3.40;;
52031;SDS011;38044;45.148;39.604;2023-07-31T16:22:51;10.13;;;2.83;;
52031;SDS011;38044;45.148;39.604;2023-07-31T16:25:17;16.20;;;3.60;;
52031;SDS011;38044;45.148;39.604;2023-07-31T16:27:43;11.90;;;3.28;;
52031;SDS011;38044;45.148;39.604;2023-07-31T16:30:09;15.00;;;3.50;;
52031;SDS011;38044;45.148;39.604;2023-07-31T16:32:35;15.15;;;3.60;;
52031;SDS011;38044;45.148;39.604;2023-07-31T16:35:02;15.25;;;3.92;;
52031;SDS011;38044;45.148;39.604;2023-07-31T16:37:28;14.70;;;4.05;;
52031;SDS011;38044;45.148;39.604;2023-07-31T16:39:56;14.18;;;4.28;;
52031;SDS011;38044;45.148;39.604;2023-07-31T16:42:22;15.40;;;4.00;;
52031;SDS011;38044;45.148;39.604;2023-07-31T16:44:48;13.93;;;3.45;;
52031;SDS011;38044;45.148;39.604;2023-07-31T16:47:14;13.65;;;3.35;;
52031;SDS011;38044;45.148;39.604;2023-07-31T16:49:42;11.23;;;3.20;;
52031;SDS011;38044;45.148;39.604;2023-07-31T16:52:11;19.92;;;6.55;;
52031;SDS011;38044;45.148;39.604;2023-07-31T16:54:37;22.98;;;12.77;;
52031;SDS011;38044;45.148;39.604;2023-07-31T16:57:02;17.73;;;6.95;;
52031;SDS011;38044;45.148;39.604;2023-07-31T16:59:29;11.68;;;4.70;;
52031;SDS011;38044;45.148;39.604;2023-07-31T17:01:54;15.53;;;6.30;;
52031;SDS011;38044;45.148;39.604;2023-07-31T17:04:24;20.80;;;9.63;;
52031;SDS011;38044;45.148;39.604;2023-07-31T17:06:49;22.20;;;12.98;;
52031;SDS011;38044;45.148;39.604;2023-07-31T17:09:15;29.03;;;13.73;;
52031;SDS011;38044;45.148;39.604;2023-07-31T17:11:42;28.13;;;14.23;;
52031;SDS011;38044;45.148;39.604;2023-07-31T17:14:07;34.03;;;16.10;;
52031;SDS011;38044;45.148;39.604;2023-07-31T17:16:36;27.87;;;14.63;;
52031;SDS011;38044;45.148;39.604;2023-07-31T17:19:02;21.75;;;12.13;;
52031;SDS011;38044;45.148;39.604;2023-07-31T17:21:28;23.85;;;10.95;;
52031;SDS011;38044;45.148;39.604;2023-07-31T17:23:55;23.05;;;10.73;;
52031;SDS011;38044;45.148;39.604;2023-07-31T17:26:21;37.25;;;16.75;;
52031;SDS011;38044;45.148;39.604;2023-07-31T17:28:48;52.13;;;29.05;;
52031;SDS011;38044;45.148;39.604;2023-07-31T17:31:15;52.58;;;33.53;;
52031;SDS011;38044;45.148;39.604;2023-07-31T17:33:41;48.53;;;32.78;;
52031;SDS011;38044;45.148;39.604;2023-07-31T17:36:07;58.93;;;33.70;;
52031;SDS011;38044;45.148;39.604;2023-07-31T17:38:34;46.27;;;31.50;;
52031;SDS011;38044;45.148;39.604;2023-07-31T17:41:00;35.97;;;24.92;;
52031;SDS011;38044;45.148;39.604;2023-07-31T17:43:26;32.42;;;18.08;;
52031;SDS011;38044;45.148;39.604;2023-07-31T17:45:52;20.45;;;11.05;;
52031;SDS011;38044;45.148;39.604;2023-07-31T17:48:18;17.67;;;8.70;;
52031;SDS011;38044;45.148;39.604;2023-07-31T17:50:50;20.90;;;6.93;;
52031;SDS011;38044;45.148;39.604;2023-07-31T17:53:17;13.23;;;5.65;;
52031;SDS011;38044;45.148;39.604;2023-07-31T17:55:43;12.85;;;5.30;;
52031;SDS011;38044;45.148;39.604;2023-07-31T17:58:09;14.13;;;5.50;;
52031;SDS011;38044;45.148;39.604;2023-07-31T18:00:35;12.97;;;5.10;;
52031;SDS011;38044;45.148;39.604;2023-07-31T18:03:01;14.02;;;4.72;;
52031;SDS011;38044;45.148;39.604;2023-07-31T18:05:26;10.07;;;5.37;;
52031;SDS011;38044;45.148;39.604;2023-07-31T18:07:52;14.82;;;5.10;;
52031;SDS011;38044;45.148;39.604;2023-07-31T18:10:18;15.27;;;5.43;;
52031;SDS011;38044;45.148;39.604;2023-07-31T18:12:44;14.88;;;4.80;;
52031;SDS011;38044;45.148;39.604;2023-07-31T18:15:10;12.10;;;5.18;;
52031;SDS011;38044;45.148;39.604;2023-07-31T18:17:35;14.50;;;4.95;;
52031;SDS011;38044;45.148;39.604;2023-07-31T18:20:01;11.35;;;4.60;;
52031;SDS011;38044;45.148;39.604;2023-07-31T18:22:28;12.70;;;4.53;;
52031;SDS011;38044;45.148;39.604;2023-07-31T18:24:54;24.83;;;4.97;;
52031;SDS011;38044;45.148;39.604;2023-07-31T18:27:20;10.00;;;4.50;;
52031;SDS011;38044;45.148;39.604;2023-07-31T18:29:47;12.57;;;4.20;;
52031;SDS011;38044;45.148;39.604;2023-07-31T18:32:13;10.02;;;4.32;;
52031;SDS011;38044;45.148;39.604;2023-07-31T18:34:39;17.20;;;4.43;;
52031;SDS011;38044;45.148;39.604;2023-07-31T18:37:04;16.10;;;4.30;;
52031;SDS011;38044;45.148;39.604;2023-07-31T18:39:31;13.80;;;4.40;;
52031;SDS011;38044;45.148;39.604;2023-07-31T18:41:57;10.23;;;3.90;;
52031;SDS011;38044;45.148;39.604;2023-07-31T18:44:23;15.57;;;4.27;;
52031;SDS011;38044;45.148;39.604;2023-07-31T18:46:48;10.80;;;4.07;;
52031;SDS011;38044;45.148;39.604;2023-07-31T18:49:14;12.03;;;3.80;;
52031;SDS011;38044;45.148;39.604;2023-07-31T18:51:40;13.50;;;4.13;;
52031;SDS011;38044;45.148;39.604;2023-07-31T18:54:07;9.95;;;3.92;;
52031;SDS011;38044;45.148;39.604;2023-07-31T18:56:32;11.75;;;4.47;;
52031;SDS011;38044;45.148;39.604;2023-07-31T18:58:59;11.60;;;3.80;;
52031;SDS011;38044;45.148;39.604;2023-07-31T19:01:26;11.53;;;4.13;;
52031;SDS011;38044;45.148;39.604;2023-07-31T19:03:52;11.10;;;4.32;;
52031;SDS011;38044;45.148;39.604;2023-07-31T19:06:18;15.73;;;4.40;;
52031;SDS011;38044;45.148;39.604;2023-07-31T19:08:43;11.47;;;4.60;;
52031;SDS011;38044;45.148;39.604;2023-07-31T19:11:09;12.27;;;4.80;;
52031;SDS011;38044;45.148;39.604;2023-07-31T19:13:36;10.15;;;4.65;;
52031;SDS011;38044;45.148;39.604;2023-07-31T19:16:03;9.30;;;4.07;;
52031;SDS011;38044;45.148;39.604;2023-07-31T19:18:30;33.35;;;6.18;;
52031;SDS011;38044;45.148;39.604;2023-07-31T19:20:56;17.63;;;5.53;;
52031;SDS011;38044;45.148;39.604;2023-07-31T19:23:22;11.65;;;4.93;;
52031;SDS011;38044;45.148;39.604;2023-07-31T19:25:48;11.20;;;5.27;;
52031;SDS011;38044;45.148;39.604;2023-07-31T19:28:14;12.10;;;5.70;;
52031;SDS011;38044;45.148;39.604;2023-07-31T19:30:41;11.73;;;5.20;;
52031;SDS011;38044;45.148;39.604;2023-07-31T19:33:07;9.70;;;5.22;;
52031;SDS011;38044;45.148;39.604;2023-07-31T19:35:33;12.15;;;5.43;;
52031;SDS011;38044;45.148;39.604;2023-07-31T19:37:59;11.70;;;5.97;;
52031;SDS011;38044;45.148;39.604;2023-07-31T19:40:25;11.30;;;6.15;;
52031;SDS011;38044;45.148;39.604;2023-07-31T19:42:51;11.45;;;6.07;;
52031;SDS011;38044;45.148;39.604;2023-07-31T19:45:17;10.38;;;5.68;;
52031;SDS011;38044;45.148;39.604;2023-07-31T19:47:43;12.07;;;6.60;;
52031;SDS011;38044;45.148;39.604;2023-07-31T19:50:09;12.68;;;7.05;;
52031;SDS011;38044;45.148;39.604;2023-07-31T19:52:35;14.07;;;6.75;;
52031;SDS011;38044;45.148;39.604;2023-07-31T19:55:01;12.37;;;6.73;;